createdAt,value
2022-08-28T00:03:48.023Z,17.00
2022-08-28T00:14:52.096Z,16.90
2022-08-28T00:25:47.812Z,17.10
2022-08-28T00:30:46.446Z,17.00
2022-08-28T00:35:51.633Z,17.00
2022-08-28T00:40:46.835Z,17.00
2022-08-28T00:45:41.713Z,16.90
2022-08-28T00:50:51.201Z,16.90
2022-08-28T00:55:44.854Z,16.80
2022-08-28T01:00:42.234Z,16.90
2022-08-28T01:05:37.802Z,17.00
2022-08-28T01:10:34.618Z,17.00
2022-08-28T01:15:35.096Z,16.90
2022-08-28T01:20:35.378Z,16.90
2022-08-28T01:25:35.430Z,16.90
2022-08-28T01:30:29.676Z,16.90
2022-08-28T01:35:28.466Z,16.80
2022-08-28T01:40:30.602Z,16.80
2022-08-28T01:45:26.304Z,16.70
2022-08-28T01:50:22.858Z,16.70
2022-08-28T01:55:16.595Z,16.70
2022-08-28T02:00:16.866Z,16.60
2022-08-28T02:05:13.275Z,16.60
2022-08-28T02:10:09.235Z,16.70
2022-08-28T02:15:02.675Z,16.70
2022-08-28T02:19:56.064Z,16.70
2022-08-28T02:24:50.779Z,16.60
2022-08-28T02:29:44.331Z,16.70
2022-08-28T02:34:39.171Z,16.70
2022-08-28T02:39:32.577Z,16.80
2022-08-28T02:44:27.382Z,16.70
2022-08-28T02:49:20.750Z,16.70
2022-08-28T02:54:14.050Z,16.70
2022-08-28T02:59:11.927Z,16.70
2022-08-28T03:04:07.137Z,16.50
2022-08-28T03:09:01.036Z,16.50
2022-08-28T03:13:55.491Z,16.50
2022-08-28T03:18:48.895Z,16.50
2022-08-28T03:23:43.778Z,16.50
2022-08-28T03:28:41.495Z,16.60
2022-08-28T03:33:35.388Z,16.60
2022-08-28T03:38:29.371Z,16.60
2022-08-28T03:43:27.426Z,16.70
2022-08-28T03:48:21.170Z,16.80
2022-08-28T03:53:15.096Z,16.90
2022-08-28T03:58:08.553Z,16.90
2022-08-28T04:03:04.550Z,17.00
2022-08-28T04:07:58.129Z,17.10
2022-08-28T04:12:51.530Z,17.10
2022-08-28T04:17:45.048Z,17.10
2022-08-28T04:22:40.129Z,17.10
2022-08-28T04:27:33.581Z,17.10
2022-08-28T04:32:27.366Z,17.00
2022-08-28T04:37:20.786Z,17.10
2022-08-28T04:42:17.710Z,17.00
2022-08-28T04:47:11.077Z,17.00
2022-08-28T04:52:05.395Z,17.10
2022-08-28T04:56:58.766Z,17.20
2022-08-28T05:01:53.897Z,17.20
2022-08-28T05:06:48.225Z,17.20
2022-08-28T05:11:41.672Z,17.10
2022-08-28T05:16:43.006Z,17.20
2022-08-28T05:21:38.806Z,17.20
2022-08-28T05:26:32.295Z,17.20
2022-08-28T05:31:28.786Z,17.30
2022-08-28T05:36:25.371Z,17.30
2022-08-28T05:41:23.247Z,17.30
2022-08-28T05:46:17.816Z,17.30
2022-08-28T05:51:15.233Z,17.40
2022-08-28T05:56:09.781Z,17.40
2022-08-28T06:01:13.353Z,17.40
2022-08-28T06:06:07.834Z,17.50
2022-08-28T06:11:02.936Z,17.60
2022-08-28T06:15:56.882Z,17.60
2022-08-28T06:20:52.992Z,17.60
2022-08-28T06:25:50.223Z,17.60
2022-08-28T06:31:08.949Z,17.70
2022-08-28T06:35:59.421Z,17.70
2022-08-28T06:40:56.587Z,17.70
2022-08-28T06:45:54.523Z,17.80
2022-08-28T06:50:50.866Z,17.80
2022-08-28T06:55:48.990Z,17.90
2022-08-28T07:00:42.941Z,17.90
2022-08-28T07:05:36.404Z,18.00
2022-08-28T07:10:31.301Z,18.00
2022-08-28T07:15:26.125Z,18.10
2022-08-28T07:20:19.846Z,18.10
2022-08-28T07:25:17.137Z,18.20
2022-08-28T07:30:13.589Z,18.20
2022-08-28T07:35:10.451Z,18.30
2022-08-28T07:40:04.973Z,18.40
2022-08-28T07:45:01.350Z,18.40
2022-08-28T07:49:54.678Z,18.40
2022-08-28T07:54:49.428Z,18.50
2022-08-28T07:59:43.024Z,18.60
2022-08-28T08:04:36.437Z,18.60
2022-08-28T08:09:29.913Z,18.60
2022-08-28T08:14:24.957Z,18.50
2022-08-28T08:19:20.353Z,18.50
2022-08-28T08:24:19.611Z,18.50
2022-08-28T08:29:14.294Z,18.60
2022-08-28T08:34:09.215Z,18.70
2022-08-28T08:39:06.458Z,18.90
2022-08-28T08:44:11.549Z,19.10
2022-08-28T08:49:15.100Z,19.60
2022-08-28T08:54:13.963Z,20.10
2022-08-28T08:59:15.236Z,20.70
2022-08-28T09:04:26.807Z,20.70
2022-08-28T09:09:32.576Z,20.30
2022-08-28T09:14:37.970Z,20.20
2022-08-28T09:19:33.255Z,20.40
2022-08-28T09:24:30.522Z,20.50
2022-08-28T09:29:43.628Z,20.40
2022-08-28T09:34:39.250Z,20.50
2022-08-28T09:39:35.675Z,20.80
2022-08-28T09:44:29.145Z,21.10
2022-08-28T09:49:30.027Z,21.40
2022-08-28T09:54:34.045Z,21.60
2022-08-28T09:59:30.216Z,21.80
2022-08-28T10:04:57.211Z,21.90
2022-08-28T10:10:07.590Z,21.90
2022-08-28T10:15:15.674Z,22.00
2022-08-28T10:20:18.857Z,22.10
2022-08-28T10:25:25.189Z,22.30
2022-08-28T10:30:23.681Z,22.50
2022-08-28T10:35:24.017Z,22.60
2022-08-28T10:40:27.524Z,22.60
2022-08-28T10:45:26.033Z,22.60
2022-08-28T10:50:26.500Z,22.80
2022-08-28T10:55:29.386Z,22.90
2022-08-28T11:00:26.387Z,22.90
2022-08-28T11:05:24.334Z,22.90
2022-08-28T11:10:41.982Z,22.90
2022-08-28T11:15:53.516Z,22.80
2022-08-28T11:21:10.976Z,22.80
2022-08-28T11:26:13.493Z,22.80
2022-08-28T11:31:35.496Z,22.90
2022-08-28T11:37:02.957Z,23.10
2022-08-28T11:42:37.686Z,23.20
2022-08-28T11:47:52.234Z,23.30
2022-08-28T11:53:34.834Z,23.30
2022-08-28T11:58:42.309Z,23.30
2022-08-28T12:03:41.680Z,23.30
2022-08-28T12:09:11.638Z,23.30
2022-08-28T12:14:07.447Z,23.30
2022-08-28T12:19:04.915Z,23.30
2022-08-28T12:24:09.827Z,23.30
2022-08-28T12:29:29.409Z,23.40
2022-08-28T12:34:35.953Z,23.40
2022-08-28T12:39:33.658Z,23.30
2022-08-28T12:44:33.645Z,23.10
2022-08-28T12:49:32.835Z,23.10
2022-08-28T12:54:26.173Z,23.10
2022-08-28T12:59:36.273Z,23.00
2022-08-28T13:04:35.951Z,23.00
2022-08-28T13:09:30.730Z,23.00
2022-08-28T13:14:43.182Z,23.00
2022-08-28T13:19:38.277Z,22.90
2022-08-28T13:24:46.390Z,22.80
2022-08-28T13:29:57.386Z,22.80
2022-08-28T13:35:29.955Z,22.80
2022-08-28T13:45:45.038Z,22.80
2022-08-28T13:50:40.117Z,22.80
2022-08-28T13:55:34.601Z,22.80
2022-08-28T14:00:30.802Z,22.80
2022-08-28T14:05:25.766Z,22.80
2022-08-28T14:10:19.826Z,22.90
2022-08-28T14:15:13.988Z,22.90
2022-08-28T14:20:08.583Z,22.80
2022-08-28T14:25:04.650Z,22.90
2022-08-28T14:29:58.239Z,22.90
2022-08-28T14:34:51.765Z,22.90
2022-08-28T14:39:45.295Z,23.00
2022-08-28T14:44:40.047Z,23.00
2022-08-28T14:49:33.425Z,23.00
2022-08-28T14:54:27.886Z,23.00
2022-08-28T14:59:24.792Z,23.00
2022-08-28T15:04:26.104Z,22.90
2022-08-28T15:09:20.138Z,22.90
2022-08-28T15:14:13.652Z,22.80
2022-08-28T15:19:12.120Z,22.90
2022-08-28T15:24:09.725Z,22.70
2022-08-28T15:29:04.054Z,22.70
2022-08-28T15:33:57.848Z,22.70
2022-08-28T15:39:09.390Z,22.90
2022-08-28T15:44:05.623Z,23.10
2022-08-28T15:48:59.290Z,23.00
2022-08-28T15:53:53.130Z,22.90
2022-08-28T15:58:46.814Z,22.60
2022-08-28T16:03:42.016Z,22.50
2022-08-28T16:08:35.463Z,22.40
2022-08-28T16:13:28.875Z,22.40
2022-08-28T16:18:22.928Z,22.30
2022-08-28T16:23:17.723Z,22.30
2022-08-28T16:28:11.158Z,22.30
2022-08-28T16:33:09.359Z,22.40
2022-08-28T16:38:03.048Z,22.50
2022-08-28T16:42:58.203Z,22.50
2022-08-28T16:47:52.201Z,22.60
2022-08-28T16:52:45.670Z,22.60
2022-08-28T16:57:39.589Z,22.60
2022-08-28T17:02:34.572Z,22.60
2022-08-28T17:07:29.030Z,22.60
2022-08-28T17:12:22.924Z,22.50
2022-08-28T17:17:16.460Z,22.50
2022-08-28T17:22:29.128Z,22.50
2022-08-28T17:27:23.447Z,22.40
2022-08-28T17:32:16.979Z,22.30
2022-08-28T17:37:12.032Z,22.20
2022-08-28T17:42:06.173Z,22.10
2022-08-28T17:46:59.586Z,22.00
2022-08-28T17:51:53.400Z,21.90
2022-08-28T17:56:48.619Z,21.80
2022-08-28T18:01:42.997Z,21.70
2022-08-28T18:06:36.431Z,21.60
2022-08-28T18:11:30.246Z,21.60
2022-08-28T18:16:30.385Z,21.50
2022-08-28T18:21:24.846Z,21.40
2022-08-28T18:26:18.416Z,21.20
2022-08-28T18:31:11.881Z,21.20
2022-08-28T18:36:09.066Z,21.30
2022-08-28T18:41:03.244Z,21.20
2022-08-28T18:47:25.237Z,21.10
2022-08-28T19:42:01.560Z,20.30
2022-08-28T19:46:56.297Z,20.40
2022-08-28T19:51:52.785Z,20.30
2022-08-28T19:56:46.302Z,20.30
2022-08-28T20:02:42.504Z,20.30
2022-08-28T20:07:38.824Z,20.20
2022-08-28T20:12:54.119Z,20.20
2022-08-28T20:17:50.327Z,20.20
2022-08-28T20:22:45.343Z,20.00
2022-08-28T20:27:39.364Z,20.00
2022-08-28T20:32:33.006Z,20.00
2022-08-28T20:37:29.532Z,20.00
2022-08-28T20:42:31.732Z,19.90
2022-08-28T20:47:25.791Z,19.90
2022-08-28T20:52:19.502Z,19.80
2022-08-28T20:57:16.200Z,19.80
2022-08-28T21:02:15.094Z,19.70
2022-08-28T21:07:09.802Z,19.70
2022-08-28T21:12:03.610Z,19.60
2022-08-28T21:16:57.438Z,19.50
2022-08-28T21:21:52.187Z,19.40
2022-08-28T21:26:49.189Z,19.30
2022-08-28T21:31:44.433Z,19.20
2022-08-28T21:36:39.683Z,19.10
2022-08-28T21:41:34.474Z,19.00
2022-08-28T21:46:28.617Z,18.90
2022-08-28T21:51:22.212Z,18.90
2022-08-28T21:56:19.779Z,18.90
2022-08-28T22:01:16.096Z,18.90
2022-08-28T22:06:12.124Z,18.80
2022-08-28T22:11:05.687Z,18.80
2022-08-28T22:15:59.190Z,18.70
2022-08-28T22:21:11.529Z,18.60
2022-08-28T22:26:12.079Z,18.50
2022-08-28T22:31:06.039Z,18.60
2022-08-28T22:36:01.117Z,18.70
2022-08-28T22:40:55.158Z,18.50
2022-08-28T22:45:49.384Z,18.40
2022-08-28T22:50:43.657Z,18.40
2022-08-28T22:55:43.207Z,18.40
2022-08-28T23:00:36.977Z,18.30
2022-08-28T23:05:31.524Z,18.30
2022-08-28T23:10:42.152Z,18.20
2022-08-28T23:15:40.018Z,18.10
2022-08-28T23:20:33.568Z,18.20
2022-08-28T23:25:27.341Z,18.10
2022-08-28T23:30:21.873Z,18.10
2022-08-28T23:35:18.355Z,18.10
2022-08-28T23:40:15.958Z,17.90
2022-08-28T23:45:10.781Z,17.90
2022-08-28T23:50:05.099Z,17.90
2022-08-28T23:55:01.195Z,17.90
2022-08-28T23:59:54.613Z,17.80
